KELD

South Arkansas Regional at Goodwin Field Airport

El Dorado, Arkansas, USA
METAR KELD 151553Z AUTO 29005KT 10SM BKN013 BKN018 OVC044 10/09 A3005 RMK AO2 SLP174 T01000089 $
Observed Flight Rules
Dec-15 @ 15:53 UTC (10 minutes ago) Marginal Visual Flight Rules
Wind Visibility Clouds
290° at 5 knots 10 miles
  • Broken at 1,300' AGL
  • Broken at 1,800' AGL
  • Overcast at 4,400' AGL
Temperatures Readings
Current 10°C / 50°F
Dewpoint 9°C / 48°F
Humidity 94%
Altimeter 30.05" Hg
Pressure 1017.4 hPa
Elevation 81
METAR KELD 151553Z AUTO 29005KT 10SM BKN013 BKN018 OVC044 10/09 A3005 RMK AO2 SLP174 T01000089 $
Observed Flight Rules
Dec-15 @ 15:53 UTC
(10 minutes ago)
MVFR
Wind Visibility
290° at 5 knots 10 miles
Clouds
  • Broken at 1,300' AGL
  • Broken at 1,800' AGL
  • Overcast at 4,400' AGL
Temperature Dewpoint
10°C / 50°F 9°C / 48°F
Humidity Altimeter Pressure
94% 30.05" Hg 1017.4 hPa